createdAt,value
2016-10-29T00:00:53.708Z,-91
2016-10-29T00:01:53.597Z,-92
2016-10-29T00:02:53.682Z,-92
2016-10-29T00:03:53.705Z,-91
2016-10-29T00:04:53.652Z,-91
2016-10-29T00:05:53.713Z,-91
2016-10-29T00:06:53.827Z,-91
2016-10-29T00:07:53.534Z,-91
2016-10-29T00:08:53.740Z,-91
2016-10-29T00:09:53.592Z,-91
2016-10-29T00:10:53.643Z,-91
2016-10-29T00:11:53.741Z,-91
2016-10-29T00:12:53.548Z,-91
2016-10-29T00:13:53.577Z,-92
2016-10-29T00:14:53.473Z,-92
2016-10-29T00:15:53.860Z,-92
2016-10-29T00:16:53.825Z,-92
2016-10-29T00:17:54.056Z,-91
2016-10-29T00:18:53.681Z,-92
2016-10-29T00:19:53.877Z,-91
2016-10-29T00:20:53.589Z,-91
2016-10-29T00:21:53.920Z,-91
2016-10-29T00:22:53.768Z,-92
2016-10-29T00:23:53.817Z,-92
2016-10-29T00:24:53.672Z,-91
2016-10-29T00:25:53.553Z,-92
2016-10-29T00:26:53.465Z,-92
2016-10-29T00:27:53.653Z,-92
2016-10-29T00:28:53.666Z,-92
2016-10-29T00:29:53.646Z,-91
2016-10-29T00:30:53.680Z,-91
2016-10-29T00:31:53.837Z,-91
2016-10-29T00:32:53.621Z,-93
2016-10-29T00:33:53.951Z,-92
2016-10-29T00:34:53.662Z,-92
2016-10-29T00:35:53.706Z,-91
2016-10-29T00:36:53.798Z,-92
2016-10-29T00:37:53.806Z,-92
2016-10-29T00:38:53.844Z,-92
2016-10-29T00:39:53.852Z,-92
2016-10-29T00:40:53.803Z,-92
2016-10-29T00:41:53.514Z,-91
2016-10-29T00:42:53.662Z,-92
2016-10-29T00:43:53.572Z,-92
2016-10-29T00:44:53.609Z,-92
2016-10-29T00:45:53.725Z,-92
2016-10-29T00:46:53.707Z,-91
2016-10-29T00:47:53.892Z,-91
2016-10-29T00:48:53.937Z,-92
2016-10-29T00:49:53.974Z,-92
2016-10-29T00:50:53.969Z,-91
2016-10-29T00:51:54.006Z,-91
2016-10-29T00:52:53.877Z,-92
2016-10-29T00:53:54.000Z,-91
2016-10-29T00:54:53.704Z,-92
2016-10-29T00:55:54.075Z,-92
2016-10-29T00:56:53.729Z,-91
2016-10-29T00:57:53.657Z,-92
2016-10-29T00:58:53.753Z,-91
2016-10-29T00:59:53.740Z,-92
2016-10-29T01:00:53.596Z,-91
2016-10-29T01:01:53.860Z,-92
2016-10-29T01:02:53.784Z,-92
2016-10-29T01:03:53.636Z,-91
2016-10-29T01:04:54.001Z,-92
2016-10-29T01:05:53.769Z,-92
2016-10-29T01:06:53.803Z,-91
2016-10-29T01:07:53.744Z,-92
2016-10-29T01:08:53.682Z,-91
2016-10-29T01:09:53.758Z,-92
2016-10-29T01:10:53.740Z,-92
2016-10-29T01:11:53.821Z,-91
2016-10-29T01:12:53.877Z,-91
2016-10-29T01:13:53.652Z,-92
2016-10-29T01:14:53.834Z,-93
2016-10-29T01:15:53.962Z,-91
2016-10-29T01:16:54.045Z,-92
2016-10-29T01:17:53.919Z,-93
2016-10-29T01:18:53.803Z,-92
2016-10-29T01:19:53.671Z,-92
2016-10-29T01:20:53.837Z,-93
2016-10-29T01:21:53.911Z,-92
2016-10-29T01:22:53.851Z,-92
2016-10-29T01:23:54.059Z,-92
2016-10-29T01:24:53.946Z,-93
2016-10-29T01:25:53.829Z,-92
2016-10-29T01:26:53.852Z,-92
2016-10-29T01:27:53.833Z,-92
2016-10-29T01:28:53.880Z,-92
2016-10-29T01:29:53.849Z,-92
2016-10-29T01:30:53.981Z,-92
2016-10-29T01:31:54.089Z,-92
2016-10-29T01:32:53.875Z,-92
2016-10-29T01:33:53.739Z,-93
2016-10-29T01:34:53.935Z,-92
2016-10-29T01:35:53.688Z,-92
2016-10-29T01:36:53.805Z,-92
2016-10-29T01:37:53.995Z,-93
2016-10-29T01:38:53.892Z,-92
2016-10-29T01:39:53.975Z,-93
2016-10-29T01:40:53.975Z,-92
2016-10-29T01:41:53.907Z,-92
2016-10-29T01:42:53.984Z,-92
2016-10-29T01:43:53.900Z,-92
2016-10-29T01:44:53.905Z,-92
2016-10-29T01:45:53.931Z,-92
2016-10-29T01:46:54.132Z,-92
2016-10-29T01:47:54.005Z,-92
2016-10-29T01:48:53.953Z,-92
2016-10-29T01:49:54.143Z,-92
2016-10-29T01:50:54.008Z,-93
2016-10-29T01:51:53.895Z,-92
2016-10-29T01:52:53.903Z,-92
2016-10-29T01:53:54.023Z,-92
2016-10-29T01:54:54.154Z,-92
2016-10-29T01:55:54.046Z,-91
2016-10-29T01:56:54.023Z,-91
2016-10-29T01:57:54.003Z,-92
2016-10-29T01:58:53.869Z,-93
2016-10-29T01:59:53.950Z,-93
2016-10-29T02:00:53.916Z,-93
2016-10-29T02:01:53.779Z,-92
2016-10-29T02:02:54.057Z,-92
2016-10-29T02:03:54.174Z,-92
2016-10-29T02:04:53.939Z,-92
2016-10-29T02:05:53.807Z,-92
2016-10-29T02:06:54.192Z,-92
2016-10-29T02:07:53.978Z,-92
2016-10-29T02:08:53.939Z,-92
2016-10-29T02:09:54.208Z,-92
2016-10-29T02:10:54.039Z,-92
2016-10-29T02:11:53.968Z,-93
2016-10-29T02:12:54.087Z,-93
2016-10-29T02:13:54.206Z,-92
2016-10-29T02:14:53.966Z,-93
2016-10-29T02:15:54.021Z,-92
2016-10-29T02:16:53.969Z,-92
2016-10-29T02:17:53.999Z,-93
2016-10-29T02:18:53.919Z,-93
2016-10-29T02:19:53.890Z,-92
2016-10-29T02:20:54.000Z,-93
2016-10-29T02:21:54.034Z,-92
2016-10-29T02:22:54.090Z,-93
2016-10-29T02:23:54.129Z,-92
2016-10-29T02:24:54.104Z,-92
2016-10-29T02:25:54.386Z,-92
2016-10-29T02:26:53.883Z,-92
2016-10-29T02:27:54.182Z,-93
2016-10-29T02:28:54.116Z,-92
2016-10-29T02:29:54.110Z,-93
2016-10-29T02:30:53.865Z,-92
2016-10-29T02:31:54.275Z,-93
2016-10-29T02:32:54.107Z,-92
2016-10-29T02:33:54.111Z,-92
2016-10-29T02:34:54.015Z,-93
2016-10-29T02:35:54.013Z,-92
2016-10-29T02:36:54.132Z,-93
2016-10-29T02:37:53.963Z,-93
2016-10-29T02:38:53.935Z,-93
2016-10-29T02:39:54.027Z,-93
2016-10-29T02:40:54.029Z,-92
2016-10-29T02:41:54.367Z,-92
2016-10-29T02:42:53.943Z,-92
2016-10-29T02:43:54.158Z,-93
2016-10-29T02:44:54.052Z,-93
2016-10-29T02:45:54.175Z,-92
2016-10-29T02:46:54.182Z,-93
2016-10-29T02:47:54.081Z,-92
2016-10-29T02:48:53.891Z,-92
2016-10-29T02:49:54.159Z,-93
2016-10-29T02:50:53.921Z,-92
2016-10-29T02:51:53.986Z,-92
2016-10-29T02:52:53.912Z,-92
2016-10-29T02:53:54.056Z,-92
2016-10-29T02:54:54.118Z,-92
2016-10-29T02:55:54.177Z,-93
2016-10-29T02:56:54.082Z,-92
2016-10-29T02:57:54.266Z,-93
2016-10-29T02:58:54.035Z,-92
2016-10-29T02:59:54.175Z,-93
2016-10-29T03:00:54.090Z,-93
2016-10-29T03:01:54.246Z,-92
2016-10-29T03:02:54.090Z,-93
2016-10-29T03:03:54.360Z,-92
2016-10-29T03:04:54.115Z,-93
2016-10-29T03:05:54.060Z,-92
2016-10-29T03:06:54.170Z,-92
2016-10-29T03:07:54.125Z,-93
2016-10-29T03:08:54.129Z,-92
2016-10-29T03:09:54.176Z,-93
2016-10-29T03:10:54.363Z,-93
2016-10-29T03:11:54.152Z,-91
2016-10-29T03:12:54.119Z,-93
2016-10-29T03:13:54.449Z,-93
2016-10-29T03:14:54.261Z,-93
2016-10-29T03:15:54.113Z,-92
2016-10-29T03:16:54.236Z,-93
2016-10-29T03:17:54.040Z,-92
2016-10-29T03:18:54.389Z,-93
2016-10-29T03:19:54.271Z,-93
2016-10-29T03:20:54.240Z,-92
2016-10-29T03:21:54.235Z,-93
2016-10-29T03:22:54.043Z,-92
2016-10-29T03:23:54.407Z,-92
2016-10-29T03:24:54.146Z,-92
2016-10-29T03:25:54.012Z,-91
2016-10-29T03:26:54.288Z,-92
2016-10-29T03:27:54.212Z,-91
2016-10-29T03:28:54.042Z,-91
2016-10-29T03:29:54.326Z,-92
2016-10-29T03:30:54.197Z,-93
2016-10-29T03:31:54.304Z,-93
2016-10-29T03:32:54.138Z,-92
2016-10-29T03:33:54.291Z,-92
2016-10-29T03:34:54.297Z,-93
2016-10-29T03:35:55.159Z,-93
2016-10-29T03:36:54.317Z,-93
2016-10-29T03:37:54.175Z,-93
2016-10-29T03:38:54.316Z,-93
2016-10-29T03:39:54.232Z,-93
2016-10-29T03:40:54.126Z,-93
2016-10-29T03:41:54.212Z,-93
2016-10-29T03:42:54.182Z,-93
2016-10-29T03:43:54.433Z,-92
2016-10-29T03:44:54.162Z,-93
2016-10-29T03:45:54.603Z,-94
2016-10-29T03:46:54.503Z,-93
2016-10-29T03:47:54.359Z,-93
2016-10-29T03:48:54.082Z,-94
2016-10-29T03:49:54.247Z,-93
2016-10-29T03:50:54.479Z,-92
2016-10-29T03:51:54.262Z,-93
2016-10-29T03:52:54.335Z,-93
2016-10-29T03:53:54.279Z,-92
2016-10-29T03:54:54.189Z,-92
2016-10-29T03:55:54.362Z,-94
2016-10-29T03:56:54.441Z,-93
2016-10-29T03:57:54.361Z,-93
2016-10-29T03:58:54.260Z,-92
2016-10-29T03:59:54.292Z,-93
2016-10-29T04:00:54.110Z,-92
2016-10-29T04:01:54.516Z,-93
2016-10-29T04:02:54.502Z,-93
2016-10-29T04:03:54.503Z,-93
2016-10-29T04:04:54.518Z,-93
2016-10-29T04:05:54.544Z,-92
2016-10-29T04:06:54.413Z,-93
2016-10-29T04:07:54.198Z,-93
2016-10-29T04:08:54.503Z,-93
2016-10-29T04:09:54.280Z,-93
2016-10-29T04:10:54.431Z,-93
2016-10-29T04:11:54.397Z,-93
2016-10-29T04:12:54.264Z,-93
2016-10-29T04:13:54.322Z,-92
2016-10-29T04:14:54.312Z,-93
2016-10-29T04:15:54.473Z,-92
2016-10-29T04:16:54.307Z,-92
2016-10-29T04:17:54.660Z,-93
2016-10-29T04:18:54.312Z,-92
2016-10-29T04:19:54.389Z,-93
2016-10-29T04:20:54.428Z,-92
2016-10-29T04:21:54.430Z,-92
2016-10-29T04:22:54.127Z,-93
2016-10-29T04:23:54.464Z,-93
2016-10-29T04:24:54.555Z,-93
2016-10-29T04:25:54.202Z,-93
2016-10-29T04:26:54.568Z,-92
2016-10-29T04:27:54.289Z,-93
2016-10-29T04:28:54.341Z,-92
2016-10-29T04:29:54.152Z,-92
2016-10-29T04:30:54.344Z,-94
2016-10-29T04:31:54.331Z,-92
2016-10-29T04:32:54.147Z,-93
2016-10-29T04:33:54.451Z,-93
2016-10-29T04:34:54.573Z,-92
2016-10-29T04:35:54.383Z,-92
2016-10-29T04:36:54.507Z,-92
2016-10-29T04:37:54.347Z,-93
2016-10-29T04:38:54.480Z,-93
2016-10-29T04:39:54.498Z,-92
2016-10-29T04:40:54.503Z,-93
2016-10-29T04:41:54.407Z,-93
2016-10-29T04:42:54.398Z,-92
2016-10-29T04:43:54.369Z,-93
2016-10-29T04:44:54.355Z,-93
2016-10-29T04:45:54.384Z,-93
2016-10-29T04:46:54.307Z,-93
2016-10-29T04:47:54.470Z,-93
2016-10-29T04:48:54.268Z,-93
2016-10-29T04:49:54.619Z,-93
2016-10-29T04:50:54.545Z,-93
2016-10-29T04:51:54.518Z,-93
2016-10-29T04:52:54.439Z,-93
2016-10-29T04:53:54.380Z,-93
2016-10-29T04:54:54.558Z,-93
2016-10-29T04:55:54.569Z,-93
2016-10-29T04:56:54.520Z,-93
2016-10-29T04:57:54.518Z,-94
2016-10-29T04:58:54.409Z,-92
2016-10-29T04:59:54.558Z,-93
2016-10-29T05:00:54.418Z,-92
2016-10-29T05:01:54.573Z,-93
2016-10-29T05:02:54.531Z,-93
2016-10-29T05:03:54.540Z,-92
2016-10-29T05:04:54.419Z,-92
2016-10-29T05:05:54.649Z,-94
2016-10-29T05:06:54.330Z,-92
2016-10-29T05:07:54.437Z,-93
2016-10-29T05:08:54.407Z,-92
2016-10-29T05:09:54.253Z,-92
2016-10-29T05:10:54.476Z,-92
2016-10-29T05:11:54.477Z,-92
2016-10-29T05:12:54.503Z,-93
2016-10-29T05:13:54.328Z,-92
2016-10-29T05:14:54.504Z,-92
2016-10-29T05:15:54.458Z,-93
2016-10-29T05:16:54.600Z,-93
2016-10-29T05:17:54.522Z,-92
2016-10-29T05:18:54.714Z,-92
2016-10-29T05:19:54.600Z,-92
2016-10-29T05:20:54.703Z,-92
2016-10-29T05:21:54.742Z,-92
2016-10-29T05:22:54.605Z,-93
2016-10-29T05:23:54.632Z,-92
2016-10-29T05:24:54.598Z,-92
2016-10-29T05:25:54.618Z,-93
2016-10-29T05:26:54.321Z,-93
2016-10-29T05:27:54.627Z,-92
2016-10-29T05:28:54.727Z,-93
2016-10-29T05:29:54.482Z,-92
2016-10-29T05:30:54.499Z,-92
2016-10-29T05:31:54.609Z,-92
2016-10-29T05:32:54.727Z,-92
2016-10-29T05:33:54.498Z,-93
2016-10-29T05:34:54.756Z,-93
2016-10-29T05:35:54.612Z,-92
2016-10-29T05:36:54.632Z,-92
2016-10-29T05:37:54.494Z,-93
2016-10-29T05:38:54.693Z,-92
2016-10-29T05:39:54.519Z,-93
2016-10-29T05:40:54.652Z,-92
2016-10-29T05:41:54.387Z,-92
2016-10-29T05:42:54.519Z,-93
2016-10-29T05:43:54.469Z,-93
2016-10-29T05:44:54.542Z,-93
2016-10-29T05:45:54.427Z,-93
2016-10-29T05:46:54.714Z,-92
2016-10-29T05:47:54.709Z,-92
2016-10-29T05:48:54.606Z,-91
2016-10-29T05:49:54.529Z,-93
2016-10-29T05:50:54.490Z,-92
2016-10-29T05:51:54.567Z,-93
2016-10-29T05:52:54.593Z,-92
2016-10-29T05:53:54.595Z,-92
2016-10-29T05:54:54.719Z,-92
2016-10-29T05:55:54.536Z,-92
2016-10-29T05:56:54.716Z,-92
2016-10-29T05:57:54.686Z,-92
2016-10-29T05:58:54.729Z,-92
2016-10-29T05:59:55.009Z,-92
2016-10-29T06:00:54.678Z,-92
2016-10-29T06:01:54.706Z,-92
2016-10-29T06:02:54.738Z,-93
2016-10-29T06:03:54.562Z,-92
2016-10-29T06:04:54.743Z,-89
2016-10-29T06:05:54.852Z,-87
2016-10-29T06:06:54.726Z,-87
2016-10-29T06:07:54.535Z,-88
2016-10-29T06:08:54.841Z,-87
2016-10-29T06:09:54.764Z,-88
2016-10-29T06:10:54.706Z,-88
2016-10-29T06:11:54.598Z,-88
2016-10-29T06:12:54.774Z,-88
2016-10-29T06:13:54.702Z,-88
2016-10-29T06:14:54.638Z,-88
2016-10-29T06:15:54.796Z,-88
2016-10-29T06:16:54.630Z,-88
2016-10-29T06:17:54.571Z,-88
2016-10-29T06:18:54.656Z,-88
2016-10-29T06:19:54.747Z,-88
2016-10-29T06:20:54.759Z,-88
2016-10-29T06:21:54.750Z,-88
2016-10-29T06:22:54.794Z,-87
2016-10-29T06:23:54.639Z,-87
2016-10-29T06:24:54.658Z,-88
2016-10-29T06:25:54.790Z,-88
2016-10-29T06:26:54.472Z,-88
2016-10-29T06:27:54.670Z,-88
2016-10-29T06:28:54.677Z,-88
2016-10-29T06:29:54.606Z,-88
2016-10-29T06:30:54.820Z,-87
2016-10-29T06:31:54.779Z,-88
2016-10-29T06:32:54.796Z,-87
2016-10-29T06:33:54.679Z,-87
2016-10-29T06:34:54.783Z,-88
2016-10-29T06:35:54.791Z,-88
2016-10-29T06:36:54.773Z,-88
2016-10-29T06:37:54.932Z,-88
2016-10-29T06:38:54.818Z,-87
2016-10-29T06:39:54.770Z,-88
2016-10-29T06:40:54.670Z,-87
2016-10-29T06:41:54.837Z,-88
2016-10-29T06:42:54.822Z,-88
2016-10-29T06:43:54.834Z,-87
2016-10-29T06:44:54.829Z,-88
2016-10-29T06:45:54.949Z,-87
2016-10-29T06:46:54.842Z,-88
2016-10-29T06:47:54.975Z,-88
2016-10-29T06:48:54.965Z,-88
2016-10-29T06:49:54.686Z,-88
2016-10-29T06:50:54.845Z,-88
2016-10-29T06:51:54.954Z,-88
2016-10-29T06:52:54.988Z,-87
2016-10-29T06:53:54.552Z,-87
2016-10-29T06:54:54.819Z,-87
2016-10-29T06:55:54.841Z,-87
2016-10-29T06:56:54.860Z,-87
2016-10-29T06:57:55.077Z,-87
2016-10-29T06:58:54.893Z,-88
2016-10-29T06:59:54.870Z,-88
2016-10-29T07:00:54.726Z,-88
2016-10-29T07:01:54.890Z,-87
2016-10-29T07:02:54.701Z,-88
2016-10-29T07:03:54.888Z,-88
2016-10-29T07:04:54.674Z,-88
2016-10-29T07:05:54.620Z,-88
2016-10-29T07:06:54.999Z,-87
2016-10-29T07:07:54.813Z,-88
2016-10-29T07:08:54.766Z,-87
2016-10-29T07:09:54.769Z,-88
2016-10-29T07:10:55.007Z,-87
2016-10-29T07:11:54.783Z,-88
2016-10-29T07:12:54.816Z,-88
2016-10-29T07:13:54.838Z,-88
2016-10-29T07:14:54.925Z,-87
2016-10-29T07:15:54.805Z,-88
2016-10-29T07:16:54.787Z,-88
2016-10-29T07:17:54.678Z,-88
2016-10-29T07:18:54.880Z,-87
2016-10-29T07:19:54.997Z,-88
2016-10-29T07:20:54.930Z,-88
2016-10-29T07:21:55.040Z,-88
2016-10-29T07:22:54.898Z,-88
2016-10-29T07:23:54.780Z,-87
2016-10-29T07:24:55.074Z,-88
2016-10-29T07:25:55.055Z,-88
2016-10-29T07:26:54.821Z,-88
2016-10-29T07:27:55.080Z,-88
2016-10-29T07:28:54.845Z,-88
2016-10-29T07:29:55.243Z,-88
2016-10-29T07:30:54.934Z,-87
2016-10-29T07:31:54.967Z,-88
2016-10-29T07:32:54.818Z,-88
2016-10-29T07:33:54.926Z,-88
2016-10-29T07:34:54.844Z,-88
2016-10-29T07:35:55.133Z,-88
2016-10-29T07:36:55.111Z,-87
2016-10-29T07:37:54.945Z,-88
2016-10-29T07:38:55.593Z,-88
2016-10-29T07:39:56.045Z,-88
2016-10-29T07:40:55.547Z,-87
2016-10-29T07:41:55.719Z,-88
2016-10-29T07:42:55.881Z,-88
2016-10-29T07:43:55.093Z,-88
2016-10-29T07:44:54.760Z,-88
2016-10-29T07:45:55.127Z,-88
2016-10-29T07:46:54.862Z,-88
2016-10-29T07:47:54.963Z,-87
2016-10-29T07:48:55.047Z,-88
2016-10-29T07:49:54.991Z,-88
2016-10-29T07:50:54.884Z,-88
2016-10-29T07:51:54.929Z,-88
2016-10-29T07:52:55.166Z,-88
2016-10-29T07:53:55.012Z,-88
2016-10-29T07:54:54.762Z,-88
2016-10-29T07:55:54.891Z,-88
2016-10-29T07:56:54.956Z,-88
2016-10-29T07:57:55.068Z,-88
2016-10-29T07:58:54.907Z,-88
2016-10-29T07:59:54.893Z,-88
2016-10-29T08:00:54.904Z,-88
2016-10-29T08:01:55.009Z,-88
2016-10-29T08:02:54.943Z,-88
2016-10-29T08:03:54.909Z,-88
2016-10-29T08:04:54.826Z,-88
2016-10-29T08:05:54.815Z,-89
2016-10-29T08:06:55.080Z,-88
2016-10-29T08:07:54.963Z,-89
2016-10-29T08:08:54.922Z,-88
2016-10-29T08:09:54.746Z,-88
2016-10-29T08:10:55.176Z,-89
2016-10-29T08:11:55.086Z,-89
2016-10-29T08:12:54.912Z,-89
2016-10-29T08:13:55.057Z,-88
2016-10-29T08:14:54.960Z,-88
2016-10-29T08:15:55.065Z,-88
2016-10-29T08:16:55.183Z,-89
2016-10-29T08:17:55.494Z,-89
2016-10-29T08:18:55.068Z,-88
2016-10-29T08:19:55.011Z,-88
2016-10-29T08:20:55.086Z,-89
2016-10-29T08:21:55.022Z,-89
2016-10-29T08:22:54.870Z,-88
2016-10-29T08:23:55.110Z,-89
2016-10-29T08:24:55.206Z,-89
2016-10-29T08:25:55.113Z,-89
2016-10-29T08:26:54.823Z,-89
2016-10-29T08:27:55.238Z,-89
2016-10-29T08:28:55.144Z,-89
2016-10-29T08:29:54.939Z,-89
2016-10-29T08:30:55.173Z,-89
2016-10-29T08:31:54.933Z,-89
2016-10-29T08:32:54.879Z,-88
2016-10-29T08:33:55.390Z,-89
2016-10-29T08:34:55.157Z,-90
2016-10-29T08:35:55.248Z,-89
2016-10-29T08:36:54.975Z,-89
2016-10-29T08:37:54.838Z,-89
2016-10-29T08:38:55.181Z,-89
2016-10-29T08:39:55.022Z,-89
2016-10-29T08:40:55.168Z,-89
2016-10-29T08:41:54.973Z,-88
2016-10-29T08:42:54.986Z,-88
2016-10-29T08:43:55.178Z,-89
2016-10-29T08:44:55.176Z,-89
2016-10-29T08:45:54.929Z,-89
2016-10-29T08:46:55.067Z,-89
2016-10-29T08:47:55.154Z,-89
2016-10-29T08:48:55.178Z,-89
2016-10-29T08:49:55.222Z,-89
2016-10-29T08:50:55.199Z,-89
2016-10-29T08:51:55.050Z,-89
2016-10-29T08:52:55.032Z,-89
2016-10-29T08:53:55.323Z,-89
2016-10-29T08:54:55.090Z,-89
2016-10-29T08:55:55.071Z,-90
2016-10-29T08:56:55.302Z,-89
2016-10-29T08:57:54.904Z,-89
2016-10-29T08:58:54.982Z,-90
2016-10-29T08:59:55.354Z,-89
2016-10-29T09:00:55.231Z,-90
2016-10-29T09:01:55.071Z,-90
2016-10-29T09:02:54.967Z,-90
2016-10-29T09:03:55.176Z,-90
2016-10-29T09:04:55.231Z,-90
2016-10-29T09:05:55.390Z,-90
2016-10-29T09:06:55.214Z,-90
2016-10-29T09:07:54.966Z,-90
2016-10-29T09:08:55.361Z,-90
2016-10-29T09:09:55.349Z,-90
2016-10-29T09:10:55.072Z,-89
2016-10-29T09:11:55.159Z,-90
2016-10-29T09:12:55.143Z,-90
2016-10-29T09:13:55.226Z,-90
2016-10-29T09:14:55.259Z,-89
2016-10-29T09:15:55.104Z,-90
2016-10-29T09:16:55.303Z,-89
2016-10-29T09:17:55.417Z,-90
2016-10-29T09:18:55.365Z,-89
2016-10-29T09:19:55.395Z,-90
2016-10-29T09:20:55.185Z,-89
2016-10-29T09:21:55.379Z,-89
2016-10-29T09:22:55.382Z,-89
2016-10-29T09:23:55.119Z,-90
2016-10-29T09:24:55.039Z,-90
2016-10-29T09:25:55.405Z,-89
2016-10-29T09:26:55.162Z,-89
2016-10-29T09:27:55.323Z,-89
2016-10-29T09:28:55.297Z,-89
2016-10-29T09:29:55.297Z,-90
2016-10-29T09:30:55.294Z,-89
2016-10-29T09:31:55.162Z,-89
2016-10-29T09:32:55.149Z,-90
2016-10-29T09:33:55.427Z,-90
2016-10-29T09:34:55.404Z,-90
2016-10-29T09:35:55.263Z,-89
2016-10-29T09:36:55.477Z,-90
2016-10-29T09:37:55.174Z,-90
2016-10-29T09:38:55.187Z,-90
2016-10-29T09:39:55.327Z,-89
2016-10-29T09:40:55.413Z,-89
2016-10-29T09:41:55.445Z,-90
2016-10-29T09:42:55.100Z,-89
2016-10-29T09:43:55.508Z,-90
2016-10-29T09:44:55.126Z,-90
2016-10-29T09:45:55.443Z,-90
2016-10-29T09:46:55.245Z,-90
2016-10-29T09:47:55.225Z,-90
2016-10-29T09:48:55.275Z,-90
2016-10-29T09:49:55.389Z,-90
2016-10-29T09:50:55.121Z,-89
2016-10-29T09:51:55.266Z,-91
2016-10-29T09:52:55.245Z,-89
2016-10-29T09:53:55.364Z,-89
2016-10-29T09:54:55.227Z,-90
2016-10-29T09:55:55.386Z,-90
2016-10-29T09:56:55.344Z,-90
2016-10-29T09:57:55.272Z,-90
2016-10-29T09:58:55.262Z,-89
2016-10-29T09:59:55.272Z,-90
2016-10-29T10:00:55.243Z,-89
2016-10-29T10:01:55.515Z,-89
2016-10-29T10:02:55.487Z,-89
2016-10-29T10:03:55.146Z,-89
2016-10-29T10:04:55.232Z,-90
2016-10-29T10:05:55.278Z,-89
2016-10-29T10:06:55.255Z,-89
2016-10-29T10:07:55.244Z,-89
2016-10-29T10:08:55.400Z,-89
2016-10-29T10:09:55.519Z,-89
2016-10-29T10:10:55.165Z,-89
2016-10-29T10:11:55.386Z,-89
2016-10-29T10:12:55.137Z,-89
2016-10-29T10:13:55.410Z,-89
2016-10-29T10:14:55.431Z,-89
2016-10-29T10:15:55.557Z,-88
2016-10-29T10:16:55.448Z,-89
2016-10-29T10:17:55.403Z,-89
2016-10-29T10:18:55.549Z,-89
2016-10-29T10:19:55.407Z,-89
2016-10-29T10:20:55.318Z,-89
2016-10-29T10:21:55.411Z,-89
2016-10-29T10:22:55.240Z,-89
2016-10-29T10:23:55.430Z,-89
2016-10-29T10:24:55.323Z,-88
2016-10-29T10:25:55.580Z,-89
2016-10-29T10:26:55.301Z,-88
2016-10-29T10:27:55.359Z,-89
2016-10-29T10:28:55.552Z,-88
2016-10-29T10:29:55.540Z,-88
2016-10-29T10:30:55.233Z,-89
2016-10-29T10:31:55.374Z,-89
2016-10-29T10:32:55.362Z,-88
2016-10-29T10:33:55.388Z,-88
2016-10-29T10:34:55.459Z,-88
2016-10-29T10:35:55.233Z,-88
2016-10-29T10:36:55.514Z,-88
2016-10-29T10:37:55.353Z,-89
2016-10-29T10:38:55.471Z,-88
2016-10-29T10:39:55.487Z,-89
2016-10-29T10:40:55.363Z,-88
2016-10-29T10:41:55.743Z,-89
2016-10-29T10:42:55.489Z,-88
2016-10-29T10:43:55.363Z,-88
2016-10-29T10:44:55.425Z,-89
2016-10-29T10:45:55.391Z,-89
2016-10-29T10:46:55.409Z,-89
2016-10-29T10:47:55.412Z,-89
2016-10-29T10:48:55.250Z,-89
2016-10-29T10:49:55.370Z,-90
2016-10-29T10:50:55.434Z,-89
2016-10-29T10:51:55.650Z,-90
2016-10-29T10:52:55.520Z,-90
2016-10-29T10:53:55.535Z,-89
2016-10-29T10:54:55.515Z,-90
2016-10-29T10:55:55.431Z,-90
2016-10-29T10:56:55.567Z,-89
2016-10-29T10:57:55.394Z,-89
2016-10-29T10:58:55.662Z,-89
2016-10-29T10:59:55.522Z,-89
2016-10-29T11:00:55.380Z,-89
2016-10-29T11:01:55.547Z,-89
2016-10-29T11:02:55.468Z,-89
2016-10-29T11:03:55.613Z,-89
2016-10-29T11:04:55.552Z,-89
2016-10-29T11:05:55.619Z,-89
2016-10-29T11:06:55.552Z,-90
2016-10-29T11:07:55.601Z,-90
2016-10-29T11:08:55.456Z,-90
2016-10-29T11:09:55.357Z,-90
2016-10-29T11:10:55.417Z,-90
2016-10-29T11:11:55.744Z,-90
2016-10-29T11:12:55.596Z,-90
2016-10-29T11:13:55.747Z,-91
2016-10-29T11:14:55.475Z,-91
2016-10-29T11:15:55.565Z,-91
2016-10-29T11:16:55.715Z,-91
2016-10-29T11:17:55.638Z,-91
2016-10-29T11:18:55.515Z,-90
2016-10-29T11:19:55.612Z,-90
2016-10-29T11:20:55.489Z,-90
2016-10-29T11:21:55.730Z,-90
2016-10-29T11:22:55.648Z,-90
2016-10-29T11:23:55.608Z,-89
2016-10-29T11:24:55.655Z,-90
2016-10-29T11:25:55.471Z,-90
2016-10-29T11:26:55.749Z,-90
2016-10-29T11:27:55.444Z,-90
2016-10-29T11:28:55.757Z,-90
2016-10-29T11:29:55.959Z,-90
2016-10-29T11:30:55.474Z,-90
2016-10-29T11:31:55.759Z,-90
2016-10-29T11:32:55.533Z,-90
2016-10-29T11:33:55.718Z,-90
2016-10-29T11:34:55.549Z,-90
2016-10-29T11:35:55.779Z,-90
2016-10-29T11:36:55.494Z,-91
2016-10-29T11:37:55.663Z,-90
2016-10-29T11:38:55.633Z,-90
2016-10-29T11:39:55.702Z,-90
2016-10-29T11:40:55.699Z,-90
2016-10-29T11:41:55.503Z,-89
2016-10-29T11:42:55.567Z,-89
2016-10-29T11:43:55.554Z,-90
2016-10-29T11:44:56.868Z,-89
2016-10-29T11:45:55.935Z,-90
2016-10-29T11:46:55.559Z,-89
2016-10-29T11:47:55.658Z,-90
2016-10-29T11:48:55.708Z,-89
2016-10-29T11:49:55.693Z,-89
2016-10-29T11:50:55.825Z,-89
2016-10-29T11:51:55.612Z,-89
2016-10-29T11:52:55.703Z,-89
2016-10-29T11:53:55.518Z,-89
2016-10-29T11:54:55.713Z,-88
2016-10-29T11:55:55.581Z,-88
2016-10-29T11:56:55.751Z,-88
2016-10-29T11:57:55.547Z,-88
2016-10-29T11:58:55.843Z,-88
2016-10-29T11:59:55.514Z,-88
2016-10-29T12:00:55.735Z,-87
2016-10-29T12:01:55.743Z,-87
2016-10-29T12:02:55.618Z,-87
2016-10-29T12:03:55.876Z,-87
2016-10-29T12:04:55.637Z,-87
2016-10-29T12:05:55.600Z,-87
2016-10-29T12:06:55.768Z,-87
2016-10-29T12:07:55.655Z,-87
2016-10-29T12:08:55.866Z,-87
2016-10-29T12:09:55.671Z,-87
2016-10-29T12:10:55.479Z,-86
2016-10-29T12:11:55.512Z,-86
2016-10-29T12:12:55.904Z,-87
2016-10-29T12:13:55.513Z,-87
2016-10-29T12:14:55.662Z,-86
2016-10-29T12:15:55.633Z,-87
2016-10-29T12:16:55.628Z,-87
2016-10-29T12:17:56.026Z,-86
2016-10-29T12:18:55.773Z,-87
2016-10-29T12:19:55.926Z,-86
2016-10-29T12:20:55.739Z,-87
2016-10-29T12:21:55.627Z,-86
2016-10-29T12:22:55.801Z,-86
2016-10-29T12:23:55.536Z,-86
2016-10-29T12:24:55.649Z,-86
2016-10-29T12:25:55.676Z,-86
2016-10-29T12:26:55.927Z,-86
2016-10-29T12:27:55.729Z,-86
2016-10-29T12:28:55.822Z,-86
2016-10-29T12:29:55.721Z,-86
2016-10-29T12:30:55.724Z,-87
2016-10-29T12:31:55.800Z,-86
2016-10-29T12:32:55.700Z,-85
2016-10-29T12:33:55.980Z,-86
2016-10-29T12:34:55.829Z,-86
2016-10-29T12:35:55.720Z,-86
2016-10-29T12:36:55.731Z,-86
2016-10-29T12:37:55.826Z,-86
2016-10-29T12:38:55.822Z,-86
2016-10-29T12:39:55.702Z,-86
2016-10-29T12:40:55.724Z,-86
2016-10-29T12:41:55.868Z,-86
2016-10-29T12:42:55.876Z,-86
2016-10-29T12:43:55.970Z,-86
2016-10-29T12:44:55.748Z,-86
2016-10-29T12:45:55.723Z,-86
2016-10-29T12:46:55.726Z,-86
2016-10-29T12:47:55.623Z,-86
2016-10-29T12:48:55.888Z,-86
2016-10-29T12:49:55.768Z,-86
2016-10-29T12:50:55.713Z,-86
2016-10-29T12:51:55.753Z,-86
2016-10-29T12:52:55.728Z,-87
2016-10-29T12:53:55.799Z,-86
2016-10-29T12:54:55.998Z,-86
2016-10-29T12:55:55.925Z,-86
2016-10-29T12:56:55.660Z,-86
2016-10-29T12:57:55.876Z,-87
2016-10-29T12:58:55.915Z,-87
2016-10-29T12:59:55.765Z,-86
2016-10-29T13:00:55.943Z,-86
2016-10-29T13:01:55.912Z,-86
2016-10-29T13:02:55.908Z,-87
2016-10-29T13:03:56.035Z,-86
2016-10-29T13:04:55.943Z,-87
2016-10-29T13:05:56.016Z,-86
2016-10-29T13:06:55.930Z,-87
2016-10-29T13:07:55.919Z,-87
2016-10-29T13:08:55.663Z,-86
2016-10-29T13:09:55.826Z,-86
2016-10-29T13:10:56.047Z,-86
2016-10-29T13:11:55.823Z,-86
2016-10-29T13:12:55.978Z,-85
2016-10-29T13:13:55.861Z,-87
2016-10-29T13:14:55.951Z,-86
2016-10-29T13:15:56.056Z,-86
2016-10-29T13:16:56.097Z,-86
2016-10-29T13:17:55.826Z,-86
2016-10-29T13:18:55.986Z,-86
2016-10-29T13:19:55.687Z,-86
2016-10-29T13:20:55.865Z,-86
2016-10-29T13:21:56.166Z,-86
2016-10-29T13:22:55.842Z,-86
2016-10-29T13:23:56.116Z,-86
2016-10-29T13:24:55.911Z,-86
2016-10-29T13:25:55.870Z,-86
2016-10-29T13:26:55.857Z,-87
2016-10-29T13:27:56.024Z,-86
2016-10-29T13:28:55.894Z,-86
2016-10-29T13:29:56.130Z,-86
2016-10-29T13:30:55.871Z,-87
2016-10-29T13:31:56.003Z,-86
2016-10-29T13:32:56.034Z,-86
2016-10-29T13:33:55.752Z,-86
2016-10-29T13:34:56.012Z,-86
2016-10-29T13:35:56.124Z,-86
2016-10-29T13:36:55.904Z,-86
2016-10-29T13:37:56.183Z,-86
2016-10-29T13:38:56.041Z,-86
2016-10-29T13:39:55.704Z,-86
2016-10-29T13:40:56.020Z,-86
2016-10-29T13:41:56.151Z,-86
2016-10-29T13:42:55.860Z,-86
2016-10-29T13:43:56.190Z,-86
2016-10-29T13:44:56.057Z,-87
2016-10-29T13:45:56.055Z,-87
2016-10-29T13:46:56.041Z,-86